Time;durP1;ratioP1;P1;durP2;ratioP2;P2;SDS_P1;SDS_P2;PMS_P1;PMS_P2;Temp;Humidity;BMP_temperature;BMP_pressure;BME280_temperature;BME280_humidity;BME280_pressure;Samples;Min_cycle;Max_cycle;Signal;HPM_P1;HPM_P2
2021/12/28 00:02:17;;;;;;;10.38;1.58;;;7.30;87.10;;;;;;5034990;28;20025;-73
2021/12/28 00:04:42;;;;;;;16.35;3.05;;;7.30;87.20;;;;;;5052738;28;20029;-73
2021/12/28 00:07:08;;;;;;;9.48;1.58;;;7.30;87.40;;;;;;5034964;28;20159;-73
2021/12/28 00:09:33;;;;;;;16.27;2.40;;;7.30;87.30;;;;;;5034848;28;20433;-73
2021/12/28 00:11:59;;;;;;;9.32;1.80;;;7.20;87.40;;;;;;5052688;28;20481;-73
2021/12/28 00:14:33;;;;;;;11.23;1.70;;;7.20;87.70;;;;;;5052595;28;20107;-74
2021/12/28 00:19:43;;;;;;;9.60;1.92;;;7.20;87.40;;;;;;5052499;28;20060;-73
2021/12/28 00:22:08;;;;;;;18.55;2.72;;;7.20;87.30;;;;;;5056044;28;20083;-72
2021/12/28 00:24:35;;;;;;;15.38;2.75;;;7.10;86.70;;;;;;5056897;28;20492;-73
2021/12/28 00:27:01;;;;;;;16.30;2.53;;;7.10;86.60;;;;;;5056537;28;20024;-72
2021/12/28 00:29:27;;;;;;;20.55;2.60;;;7.20;86.20;;;;;;5056354;28;20500;-72
2021/12/28 00:31:52;;;;;;;14.75;2.78;;;7.10;86.00;;;;;;5056421;28;20021;-73
2021/12/28 00:34:18;;;;;;;16.60;2.83;;;7.20;86.20;;;;;;5056225;28;20040;-73
2021/12/28 00:36:43;;;;;;;12.88;2.50;;;7.10;86.30;;;;;;5056340;28;20060;-73
2021/12/28 00:39:09;;;;;;;16.58;2.80;;;7.10;86.70;;;;;;5056290;28;20465;-73
2021/12/28 00:41:35;;;;;;;11.63;2.50;;;7.10;87.00;;;;;;5056122;28;20025;-72
2021/12/28 00:44:00;;;;;;;14.48;2.80;;;7.00;87.10;;;;;;5056155;28;20025;-73
2021/12/28 00:46:26;;;;;;;15.60;2.75;;;7.10;87.20;;;;;;5056123;28;20036;-72
2021/12/28 00:48:51;;;;;;;13.80;2.50;;;7.00;86.80;;;;;;5056085;28;20100;-72
2021/12/28 00:51:17;;;;;;;14.05;2.92;;;7.00;86.90;;;;;;5055982;28;20466;-73
2021/12/28 00:53:42;;;;;;;16.25;2.97;;;7.00;86.90;;;;;;5055934;28;20090;-73
2021/12/28 00:56:08;;;;;;;18.10;3.33;;;7.00;86.80;;;;;;5055708;28;20032;-73
2021/12/28 00:58:34;;;;;;;15.07;3.03;;;7.00;86.50;;;;;;5055762;28;20481;-72
2021/12/28 01:00:59;;;;;;;17.83;3.53;;;7.00;86.40;;;;;;5055755;28;20067;-73
2021/12/28 01:03:25;;;;;;;15.70;2.40;;;7.00;86.30;;;;;;5055715;28;20029;-73
2021/12/28 01:05:51;;;;;;;20.42;2.80;;;7.00;86.40;;;;;;5037774;28;20060;-73
2021/12/28 01:08:17;;;;;;;16.98;2.72;;;7.00;86.30;;;;;;5055627;28;20385;-73
2021/12/28 01:10:52;;;;;;;19.67;3.00;;;7.00;86.30;;;;;;5055334;28;20037;-73
2021/12/28 01:13:18;;;;;;;14.55;3.13;;;7.00;86.40;;;;;;5055555;28;20025;-73
2021/12/28 01:15:44;;;;;;;16.02;2.55;;;7.00;86.40;;;;;;5055582;28;20025;-73
2021/12/28 01:18:12;;;;;;;12.65;2.15;;;6.90;86.10;;;;;;5055490;28;20017;-73
2021/12/28 01:20:38;;;;;;;9.13;2.13;;;7.00;85.70;;;;;;5055375;28;20021;-73
2021/12/28 01:23:04;;;;;;;10.07;1.85;;;7.00;85.30;;;;;;5055162;28;20465;-73
2021/12/28 01:25:29;;;;;;;7.72;1.77;;;7.00;85.20;;;;;;5055047;28;20033;-73
2021/12/28 01:27:55;;;;;;;14.77;2.90;;;7.00;85.40;;;;;;5055344;28;20074;-73
2021/12/28 01:30:27;;;;;;;11.07;2.05;;;7.00;85.60;;;;;;5055187;28;20037;-73
2021/12/28 01:32:53;;;;;;;11.93;2.30;;;7.00;85.10;;;;;;5054467;28;20049;-72
2021/12/28 01:35:20;;;;;;;9.25;2.15;;;7.00;85.40;;;;;;5054982;28;20049;-72
2021/12/28 01:37:47;;;;;;;13.77;2.47;;;7.00;85.30;;;;;;5055115;28;20036;-73
2021/12/28 01:40:18;;;;;;;11.57;1.85;;;6.90;85.10;;;;;;5055023;28;20025;-73
2021/12/28 01:42:59;;;;;;;11.88;1.98;;;6.90;85.20;;;;;;5055317;28;20457;-73
2021/12/28 01:45:36;;;;;;;14.68;1.75;;;7.00;83.80;;;;;;5054895;28;20033;-72
2021/12/28 01:48:02;;;;;;;9.48;1.80;;;7.10;82.90;;;;;;5054841;28;20014;-73
2021/12/28 01:50:28;;;;;;;11.77;1.75;;;7.30;82.10;;;;;;5054724;28;20481;-73
2021/12/28 01:52:54;;;;;;;10.82;1.55;;;7.30;81.80;;;;;;5054866;28;20036;-73
2021/12/28 01:55:20;;;;;;;7.72;1.38;;;7.40;81.70;;;;;;5054726;28;20394;-73
2021/12/28 01:57:45;;;;;;;8.32;1.73;;;7.40;81.60;;;;;;5054730;28;20059;-72
2021/12/28 02:00:12;;;;;;;10.52;1.90;;;7.40;81.50;;;;;;5054739;28;20113;-72
2021/12/28 02:02:38;;;;;;;10.90;1.52;;;7.40;80.90;;;;;;5054499;28;20063;-73
2021/12/28 02:05:04;;;;;;;8.63;1.35;;;7.40;80.70;;;;;;5054592;28;20465;-73
2021/12/28 02:07:29;;;;;;;6.88;1.58;;;7.50;80.80;;;;;;5036410;28;20021;-72
2021/12/28 02:09:55;;;;;;;7.43;1.02;;;7.60;80.30;;;;;;5054371;28;20037;-72
2021/12/28 02:12:22;;;;;;;7.07;1.75;;;7.60;80.20;;;;;;5054416;28;20399;-73
2021/12/28 02:14:48;;;;;;;4.60;1.00;;;7.60;80.30;;;;;;5054277;28;20017;-73
2021/12/28 02:17:14;;;;;;;6.00;1.63;;;7.70;80.30;;;;;;5054315;28;20359;-73
2021/12/28 02:19:41;;;;;;;5.65;1.15;;;7.70;81.10;;;;;;5036320;28;20033;-73
2021/12/28 02:22:07;;;;;;;8.18;0.98;;;7.70;79.70;;;;;;5054211;28;20466;-72
2021/12/28 02:24:33;;;;;;;9.73;1.35;;;7.70;79.50;;;;;;5054067;28;20021;-73
2021/12/28 02:26:59;;;;;;;4.22;1.30;;;7.80;79.20;;;;;;5054154;28;20458;-72
2021/12/28 02:29:24;;;;;;;5.40;1.08;;;7.80;79.40;;;;;;5053970;28;20036;-73
2021/12/28 02:31:55;;;;;;;6.10;0.80;;;7.90;79.10;;;;;;5054130;28;20366;-73
2021/12/28 02:34:24;;;;;;;3.72;0.98;;;7.90;79.60;;;;;;5053609;28;20051;-73
2021/12/28 02:36:51;;;;;;;6.95;1.23;;;7.70;80.00;;;;;;5053962;28;20017;-73
2021/12/28 02:39:17;;;;;;;7.28;1.05;;;7.70;80.40;;;;;;5053879;28;20029;-72
2021/12/28 02:41:42;;;;;;;8.32;1.30;;;7.70;80.20;;;;;;5053820;28;20029;-73
2021/12/28 02:44:08;;;;;;;6.05;1.13;;;7.70;80.00;;;;;;5053718;28;20021;-73
2021/12/28 02:46:34;;;;;;;5.30;1.25;;;7.70;80.40;;;;;;5053756;28;20108;-73
2021/12/28 02:49:01;;;;;;;3.75;1.25;;;7.60;80.20;;;;;;5053721;28;20454;-73
2021/12/28 02:51:27;;;;;;;5.85;1.17;;;7.60;80.50;;;;;;5053655;28;20386;-73
2021/12/28 02:53:53;;;;;;;6.72;1.08;;;7.60;80.70;;;;;;5053622;28;20021;-73
2021/12/28 02:56:20;;;;;;;8.05;1.27;;;7.60;80.90;;;;;;5053586;28;20366;-73
2021/12/28 02:58:52;;;;;;;3.50;1.00;;;7.60;81.30;;;;;;5053364;28;20013;-73
2021/12/28 03:01:19;;;;;;;4.18;1.00;;;7.60;81.10;;;;;;5053583;28;20029;-73
2021/12/28 03:03:47;;;;;;;5.32;1.35;;;7.60;81.30;;;;;;5053346;28;20032;-73
2021/12/28 03:06:16;;;;;;;6.55;1.20;;;7.50;81.50;;;;;;5053379;28;20051;-73
2021/12/28 03:08:48;;;;;;;2.50;0.98;;;7.60;80.90;;;;;;5053220;28;20017;-73
2021/12/28 03:11:14;;;;;;;2.40;0.93;;;7.60;80.90;;;;;;5053228;28;20047;-73
2021/12/28 03:13:43;;;;;;;5.75;1.02;;;7.70;81.60;;;;;;5053258;28;20041;-72
2021/12/28 03:16:10;;;;;;;2.75;0.77;;;7.60;81.30;;;;;;5053358;28;20435;-72
2021/12/28 03:18:36;;;;;;;4.57;0.98;;;7.70;80.60;;;;;;5053002;28;20017;-73
2021/12/28 03:21:04;;;;;;;1.95;0.60;;;7.80;80.90;;;;;;5053171;28;20091;-73
2021/12/28 03:23:30;;;;;;;6.75;1.35;;;7.80;80.50;;;;;;5052970;28;20025;-72
2021/12/28 03:25:56;;;;;;;5.18;1.08;;;7.90;79.80;;;;;;5053020;28;20021;-72
2021/12/28 03:28:28;;;;;;;2.25;1.00;;;7.90;80.10;;;;;;5052941;28;20029;-73
2021/12/28 03:30:56;;;;;;;4.13;1.23;;;7.90;81.50;;;;;;5053036;28;20036;-73
2021/12/28 03:33:25;;;;;;;5.20;1.15;;;7.90;81.00;;;;;;5052798;28;20108;-73
2021/12/28 03:35:51;;;;;;;2.70;0.95;;;7.80;81.40;;;;;;5068328;28;20444;-73
2021/12/28 03:38:18;;;;;;;4.75;1.00;;;7.80;81.80;;;;;;5052864;28;20020;-72
2021/12/28 03:40:44;;;;;;;5.53;1.00;;;7.70;82.40;;;;;;5052850;28;20032;-73
2021/12/28 03:43:09;;;;;;;4.45;1.40;;;7.60;82.70;;;;;;5034791;28;20033;-73
2021/12/28 03:45:35;;;;;;;6.05;1.23;;;7.60;83.10;;;;;;5052719;28;20029;-73
2021/12/28 03:48:01;;;;;;;3.85;1.00;;;7.50;83.30;;;;;;5052816;28;20051;-73
2021/12/28 03:50:26;;;;;;;5.32;1.08;;;7.50;83.70;;;;;;5052744;28;20370;-73
2021/12/28 03:52:56;;;;;;;5.15;1.13;;;7.40;83.80;;;;;;5052785;28;20458;-73
2021/12/28 03:55:23;;;;;;;4.20;1.40;;;7.40;83.80;;;;;;5054446;28;20063;-73
2021/12/28 03:57:49;;;;;;;5.65;1.40;;;7.40;83.60;;;;;;5059359;28;20025;-73
2021/12/28 04:00:17;;;;;;;3.50;1.70;;;7.40;84.00;;;;;;5059289;28;20029;-73
2021/12/28 04:02:43;;;;;;;6.63;1.48;;;7.40;84.20;;;;;;5059190;28;20048;-73
2021/12/28 04:05:09;;;;;;;2.58;1.40;;;7.40;84.50;;;;;;5059028;28;20028;-72
2021/12/28 04:07:35;;;;;;;3.50;1.73;;;7.40;85.20;;;;;;5058784;28;20056;-72
2021/12/28 04:10:03;;;;;;;6.72;2.05;;;7.30;85.00;;;;;;5059065;28;20150;-72
2021/12/28 04:12:31;;;;;;;4.97;1.73;;;7.30;85.20;;;;;;5059257;28;20021;-71
2021/12/28 04:14:57;;;;;;;3.90;2.28;;;7.30;85.80;;;;;;5059318;28;20028;-72
2021/12/28 04:17:25;;;;;;;5.05;2.35;;;7.30;85.60;;;;;;5059211;28;20484;-72
2021/12/28 04:19:51;;;;;;;3.83;1.65;;;7.20;85.60;;;;;;5059209;28;20048;-72
2021/12/28 04:22:16;;;;;;;5.10;2.00;;;7.20;86.00;;;;;;5059185;28;20458;-72
2021/12/28 04:24:42;;;;;;;5.30;2.10;;;7.20;85.80;;;;;;5059167;28;20029;-72
2021/12/28 04:27:08;;;;;;;6.88;2.55;;;7.10;85.70;;;;;;5059264;28;20054;-73
2021/12/28 04:29:33;;;;;;;5.35;2.30;;;7.20;86.00;;;;;;5059025;28;20123;-72
2021/12/28 04:31:59;;;;;;;4.40;1.92;;;7.20;85.80;;;;;;5059038;28;20051;-72
2021/12/28 04:34:25;;;;;;;7.63;2.00;;;7.20;86.20;;;;;;5059019;28;20056;-72
2021/12/28 04:36:50;;;;;;;3.83;2.25;;;7.10;86.50;;;;;;5059186;28;20028;-72
2021/12/28 04:39:16;;;;;;;2.40;1.90;;;7.10;86.20;;;;;;5059058;28;20374;-73
2021/12/28 04:41:43;;;;;;;2.30;1.75;;;7.10;86.40;;;;;;5059039;28;20551;-72
2021/12/28 04:44:12;;;;;;;3.47;2.05;;;7.10;86.40;;;;;;5058913;28;20083;-72
2021/12/28 04:46:39;;;;;;;1.98;1.40;;;7.20;86.50;;;;;;5058611;28;20105;-72
2021/12/28 04:49:04;;;;;;;2.90;1.70;;;7.10;85.40;;;;;;5058690;28;20497;-72
2021/12/28 04:51:30;;;;;;;4.45;1.80;;;7.20;85.70;;;;;;5058920;28;20051;-72
2021/12/28 04:53:59;;;;;;;3.80;1.80;;;7.20;85.80;;;;;;5059005;28;20025;-72
2021/12/28 04:56:24;;;;;;;4.65;1.80;;;7.20;85.10;;;;;;5058859;28;20393;-72
2021/12/28 04:58:50;;;;;;;4.47;2.05;;;7.20;85.40;;;;;;5058806;28;20021;-72
2021/12/28 05:01:16;;;;;;;4.28;2.03;;;7.20;84.60;;;;;;5058974;28;20036;-72
2021/12/28 05:03:41;;;;;;;3.63;1.80;;;7.30;84.60;;;;;;5058800;28;20443;-72
2021/12/28 05:06:07;;;;;;;2.65;1.23;;;7.40;84.20;;;;;;5058801;28;20082;-72
2021/12/28 05:08:33;;;;;;;2.28;1.33;;;7.40;84.00;;;;;;5069545;28;20017;-72
2021/12/28 05:10:58;;;;;;;1.65;1.55;;;7.40;84.20;;;;;;5055542;28;20083;-72
2021/12/28 05:13:24;;;;;;;2.50;1.60;;;7.50;83.50;;;;;;5055441;28;20025;-73
2021/12/28 05:15:52;;;;;;;1.73;0.98;;;7.60;83.10;;;;;;5055343;28;20500;-73
2021/12/28 05:18:17;;;;;;;1.50;1.20;;;7.60;83.10;;;;;;5054940;28;20013;-72
2021/12/28 05:20:43;;;;;;;2.60;1.33;;;7.60;82.60;;;;;;5055347;28;20488;-72
2021/12/28 05:23:10;;;;;;;2.95;1.08;;;7.60;82.40;;;;;;5055395;28;20021;-72
2021/12/28 05:25:36;;;;;;;3.03;1.10;;;7.70;82.10;;;;;;5037523;28;20024;-72
2021/12/28 05:28:03;;;;;;;2.53;1.10;;;7.80;81.60;;;;;;5056070;28;20136;-73
2021/12/28 05:30:29;;;;;;;1.52;1.10;;;7.80;81.70;;;;;;5055681;28;20086;-72
2021/12/28 05:32:55;;;;;;;1.27;0.90;;;7.80;81.30;;;;;;5055320;28;20033;-72
2021/12/28 05:35:21;;;;;;;1.92;1.20;;;7.80;81.10;;;;;;5054990;28;20049;-72
2021/12/28 05:37:47;;;;;;;1.33;0.98;;;7.90;81.50;;;;;;5070609;28;20087;-72
2021/12/28 05:40:13;;;;;;;1.55;0.88;;;7.80;81.00;;;;;;5055155;28;20485;-72
2021/12/28 05:42:40;;;;;;;2.03;0.95;;;7.90;80.40;;;;;;5055059;28;20036;-73
2021/12/28 05:45:06;;;;;;;1.30;0.60;;;7.90;80.50;;;;;;5054920;28;20032;-72
2021/12/28 05:47:32;;;;;;;1.95;0.63;;;8.00;79.90;;;;;;5054805;28;20473;-73
2021/12/28 05:49:58;;;;;;;0.82;0.70;;;8.00;79.70;;;;;;5037126;28;20041;-73
2021/12/28 05:52:23;;;;;;;0.50;0.50;;;8.10;79.70;;;;;;5054853;28;20539;-73
2021/12/28 05:54:49;;;;;;;0.70;0.60;;;8.10;79.60;;;;;;5054956;28;20078;-72
2021/12/28 05:57:15;;;;;;;0.63;0.60;;;8.10;79.80;;;;;;5054905;28;20067;-72
2021/12/28 05:59:40;;;;;;;1.65;0.43;;;8.00;80.60;;;;;;5054907;28;20025;-72
2021/12/28 06:02:06;;;;;;;0.43;0.40;;;8.00;81.50;;;;;;5054768;28;20021;-72
2021/12/28 06:04:33;;;;;;;1.05;0.77;;;8.00;81.40;;;;;;5054817;28;20480;-73
2021/12/28 06:06:58;;;;;;;1.40;0.55;;;7.90;83.20;;;;;;5054718;28;20027;-72
2021/12/28 06:09:24;;;;;;;0.40;0.40;;;7.90;82.90;;;;;;5054555;28;20108;-72
2021/12/28 06:11:50;;;;;;;0.65;0.40;;;7.90;82.20;;;;;;5054619;28;20056;-72
2021/12/28 06:14:16;;;;;;;1.23;0.47;;;7.90;82.00;;;;;;5054591;28;20359;-72
2021/12/28 06:16:41;;;;;;;1.08;0.50;;;7.90;81.80;;;;;;5054322;28;20032;-72
2021/12/28 06:19:07;;;;;;;3.40;0.40;;;8.00;81.30;;;;;;5054249;28;20025;-72
2021/12/28 06:21:34;;;;;;;0.75;0.40;;;7.90;81.50;;;;;;5056423;28;20079;-73
2021/12/28 06:24:00;;;;;;;0.40;0.40;;;7.90;81.20;;;;;;5058116;28;20037;-72
2021/12/28 06:26:27;;;;;;;0.35;0.35;;;7.90;81.10;;;;;;5036428;28;20500;-72
2021/12/28 06:28:53;;;;;;;2.13;0.63;;;7.90;81.20;;;;;;5036494;28;20025;-72
2021/12/28 06:31:18;;;;;;;1.05;0.50;;;7.90;81.60;;;;;;5054197;28;20071;-72
2021/12/28 06:33:44;;;;;;;0.93;0.50;;;7.80;82.20;;;;;;5069275;28;20072;-72
2021/12/28 06:36:10;;;;;;;4.15;0.50;;;7.80;81.90;;;;;;5054149;28;20056;-72
2021/12/28 06:38:36;;;;;;;0.60;0.30;;;7.80;82.10;;;;;;5053965;28;20029;-74
2021/12/28 06:41:01;;;;;;;0.70;0.30;;;7.80;81.80;;;;;;5054015;28;20031;-74
2021/12/28 06:43:27;;;;;;;0.20;0.20;;;7.80;81.90;;;;;;5053930;28;20021;-73
2021/12/28 06:45:55;;;;;;;0.20;0.20;;;7.80;81.90;;;;;;5053944;28;20389;-73
2021/12/28 06:48:21;;;;;;;0.95;0.30;;;7.80;82.50;;;;;;5054027;28;20029;-73
2021/12/28 06:50:46;;;;;;;0.45;0.20;;;7.80;83.70;;;;;;5053694;28;20040;-73
2021/12/28 06:53:12;;;;;;;0.20;0.20;;;7.70;83.80;;;;;;5053661;28;20355;-74
2021/12/28 06:55:38;;;;;;;0.88;0.30;;;7.60;83.60;;;;;;5053682;28;20115;-73
2021/12/28 06:58:05;;;;;;;0.45;0.22;;;7.70;83.90;;;;;;5035876;28;20063;-73
2021/12/28 07:00:30;;;;;;;0.22;0.20;;;7.70;84.00;;;;;;5053629;28;20025;-71
2021/12/28 07:02:56;;;;;;;0.30;0.20;;;7.70;84.40;;;;;;5053305;28;20095;-73
2021/12/28 07:05:21;;;;;;;0.20;0.20;;;7.60;84.50;;;;;;5053332;28;20036;-73
2021/12/28 07:07:47;;;;;;;0.10;0.10;;;7.60;84.00;;;;;;5053455;28;20029;-74
2021/12/28 07:10:12;;;;;;;1.17;0.40;;;7.70;84.00;;;;;;5053170;28;20044;-73
2021/12/28 07:12:38;;;;;;;0.28;0.20;;;7.60;84.40;;;;;;5052939;28;20056;-73
2021/12/28 07:15:05;;;;;;;3.00;0.20;;;7.60;84.30;;;;;;5035420;28;20025;-73
2021/12/28 07:17:31;;;;;;;1.55;0.30;;;7.70;84.20;;;;;;5053312;28;20017;-74
2021/12/28 07:19:57;;;;;;;1.30;0.40;;;7.70;84.00;;;;;;5053274;28;20025;-73
2021/12/28 07:22:22;;;;;;;0.25;0.20;;;7.70;84.50;;;;;;5053235;28;20028;-73
2021/12/28 07:24:48;;;;;;;0.17;0.17;;;7.80;84.30;;;;;;5053051;28;20032;-73
2021/12/28 07:27:14;;;;;;;0.30;0.17;;;7.70;84.20;;;;;;5053150;28;20032;-74
2021/12/28 07:29:40;;;;;;;0.57;0.10;;;7.70;84.50;;;;;;5052818;28;20036;-74
2021/12/28 07:32:08;;;;;;;0.00;0.00;;;7.70;85.20;;;;;;5052718;28;20359;-74
2021/12/28 07:34:34;;;;;;;0.63;0.30;;;7.70;86.00;;;;;;5052479;28;20049;-73
2021/12/28 07:37:00;;;;;;;0.95;0.30;;;7.60;86.20;;;;;;5052868;28;20024;-74
2021/12/28 07:39:26;;;;;;;0.15;0.05;;;7.60;86.00;;;;;;5052889;28;20025;-73
2021/12/28 07:41:52;;;;;;;0.40;0.30;;;7.60;85.40;;;;;;5052979;28;20035;-73
2021/12/28 07:44:17;;;;;;;0.05;0.05;;;7.70;85.40;;;;;;5052942;28;20474;-74
2021/12/28 07:46:43;;;;;;;0.17;0.10;;;7.70;86.40;;;;;;5052835;28;20033;-73
2021/12/28 07:49:08;;;;;;;1.17;0.10;;;7.70;85.70;;;;;;5034672;28;20060;-73
2021/12/28 07:51:34;;;;;;;0.10;0.10;;;7.70;86.30;;;;;;5052450;28;20120;-73
2021/12/28 07:53:59;;;;;;;0.20;0.20;;;7.70;86.50;;;;;;5052905;28;20048;-72
2021/12/28 07:56:26;;;;;;;0.10;0.10;;;7.70;86.30;;;;;;5052675;28;20029;-72
2021/12/28 07:58:51;;;;;;;1.08;0.20;;;7.70;87.00;;;;;;5052921;28;20521;-73
2021/12/28 08:01:17;;;;;;;0.43;0.15;;;7.70;86.50;;;;;;5053011;28;20029;-73
2021/12/28 08:03:43;;;;;;;0.20;0.17;;;7.70;87.00;;;;;;5052792;28;20021;-73
2021/12/28 08:06:08;;;;;;;0.20;0.10;;;7.70;86.80;;;;;;5052832;28;20420;-73
2021/12/28 08:08:34;;;;;;;0.10;0.10;;;7.70;86.60;;;;;;5050378;28;20021;-73
2021/12/28 08:10:59;;;;;;;0.60;0.22;;;7.70;86.60;;;;;;5052237;28;20064;-73
2021/12/28 08:13:25;;;;;;;0.10;0.10;;;7.80;86.50;;;;;;5052155;28;20137;-74
2021/12/28 08:15:51;;;;;;;0.40;0.13;;;7.80;86.20;;;;;;5052885;28;20397;-75
2021/12/28 08:18:16;;;;;;;0.80;0.10;;;7.90;86.10;;;;;;5052587;28;20029;-74
2021/12/28 08:20:42;;;;;;;0.38;0.10;;;7.90;86.30;;;;;;5052401;28;20074;-75
2021/12/28 08:23:08;;;;;;;0.00;0.00;;;7.90;86.60;;;;;;5052527;28;20108;-74
2021/12/28 08:25:34;;;;;;;0.15;0.10;;;7.90;86.30;;;;;;5052273;28;20053;-74
2021/12/28 08:28:05;;;;;;;0.65;0.20;;;8.00;86.40;;;;;;5052360;28;20426;-73
2021/12/28 08:30:34;;;;;;;0.10;0.10;;;8.10;86.20;;;;;;5052392;28;20465;-72
2021/12/28 08:33:03;;;;;;;0.35;0.30;;;8.00;86.40;;;;;;5052085;28;20044;-72
2021/12/28 08:35:29;;;;;;;0.32;0.10;;;8.10;87.00;;;;;;5051565;28;20385;-72
2021/12/28 08:37:55;;;;;;;0.10;0.10;;;8.10;87.50;;;;;;5052022;28;20036;-72
2021/12/28 08:40:20;;;;;;;0.57;0.13;;;8.10;86.70;;;;;;5051854;28;20028;-72
2021/12/28 08:42:46;;;;;;;0.17;0.17;;;8.20;86.70;;;;;;5054964;28;20048;-72
2021/12/28 08:45:12;;;;;;;1.25;0.10;;;8.20;87.00;;;;;;5055842;28;20147;-70
2021/12/28 08:47:37;;;;;;;0.30;0.10;;;8.40;87.00;;;;;;5039354;28;20048;-70
2021/12/28 08:50:06;;;;;;;0.10;0.10;;;8.60;86.50;;;;;;5056986;28;20040;-72
2021/12/28 08:52:31;;;;;;;0.73;0.10;;;8.60;85.50;;;;;;5055623;28;20021;-71
2021/12/28 08:54:57;;;;;;;0.40;0.32;;;8.70;85.30;;;;;;5055728;28;20049;-71
2021/12/28 08:57:23;;;;;;;0.00;0.00;;;8.70;84.80;;;;;;5055392;28;20021;-70
2021/12/28 08:59:48;;;;;;;0.20;0.00;;;8.80;84.80;;;;;;5055993;28;20500;-69
2021/12/28 09:02:14;;;;;;;0.00;0.00;;;8.90;85.10;;;;;;5055954;28;20416;-70
2021/12/28 09:04:43;;;;;;;1.27;0.10;;;9.00;84.70;;;;;;5055737;28;20025;-71
2021/12/28 09:07:16;;;;;;;0.32;0.10;;;9.10;84.90;;;;;;5055671;28;20033;-70
2021/12/28 09:09:42;;;;;;;0.00;0.00;;;9.10;84.50;;;;;;5055356;28;20114;-71
2021/12/28 09:12:08;;;;;;;0.10;0.10;;;9.20;84.20;;;;;;5055123;28;20037;-71
2021/12/28 09:14:34;;;;;;;0.63;0.10;;;9.30;84.30;;;;;;5055490;28;20074;-70
2021/12/28 09:17:00;;;;;;;0.10;0.03;;;9.40;84.20;;;;;;5055653;28;20026;-71
2021/12/28 09:19:25;;;;;;;0.17;0.10;;;9.50;83.70;;;;;;5037362;28;20040;-70
2021/12/28 09:21:51;;;;;;;0.30;0.20;;;9.50;83.70;;;;;;5055398;28;20108;-72
2021/12/28 09:24:16;;;;;;;0.13;0.13;;;9.50;84.20;;;;;;5055177;28;20076;-71
2021/12/28 09:26:42;;;;;;;0.60;0.22;;;9.50;84.30;;;;;;5055242;28;20029;-72
2021/12/28 09:29:08;;;;;;;0.57;0.10;;;9.50;84.10;;;;;;5054675;28;20036;-72
2021/12/28 09:31:33;;;;;;;0.22;0.10;;;9.60;83.60;;;;;;5055043;28;20108;-72
2021/12/28 09:33:59;;;;;;;0.20;0.20;;;9.80;83.50;;;;;;5054547;28;20465;-70
2021/12/28 09:36:25;;;;;;;0.95;0.15;;;9.90;83.10;;;;;;5054742;28;20029;-73
2021/12/28 09:38:51;;;;;;;0.60;0.20;;;9.70;83.30;;;;;;5037300;28;20017;-73
2021/12/28 09:41:17;;;;;;;0.40;0.13;;;9.60;84.40;;;;;;5037057;28;20032;-74
2021/12/28 09:43:43;;;;;;;0.13;0.03;;;9.50;85.40;;;;;;5036957;28;20120;-73
2021/12/28 09:46:09;;;;;;;2.15;0.20;;;9.40;85.70;;;;;;5055116;28;20032;-73
2021/12/28 09:48:36;;;;;;;5.28;0.20;;;9.40;86.10;;;;;;5070026;28;20029;-73
2021/12/28 09:51:03;;;;;;;0.28;0.10;;;9.30;86.50;;;;;;5036540;28;20029;-73
2021/12/28 09:53:29;;;;;;;0.25;0.10;;;9.20;87.00;;;;;;5035864;28;20056;-73
2021/12/28 09:55:55;;;;;;;0.10;0.10;;;9.20;87.50;;;;;;5070077;28;20060;-73
2021/12/28 09:58:20;;;;;;;0.10;0.10;;;9.30;87.30;;;;;;5036613;28;20025;-73
2021/12/28 10:00:46;;;;;;;0.30;0.20;;;9.20;87.10;;;;;;5036543;28;20071;-73
2021/12/28 10:03:13;;;;;;;0.65;0.43;;;9.30;87.40;;;;;;5036487;28;20032;-73
2021/12/28 10:05:39;;;;;;;0.20;0.20;;;9.30;87.80;;;;;;5069894;28;20021;-73
2021/12/28 10:08:06;;;;;;;0.20;0.10;;;9.30;87.70;;;;;;5069795;28;20029;-73
2021/12/28 10:10:37;;;;;;;0.10;0.10;;;9.30;87.80;;;;;;5036442;28;20041;-73
2021/12/28 10:13:18;;;;;;;0.13;0.10;;;9.40;88.20;;;;;;5036460;28;20031;-74
2021/12/28 10:15:45;;;;;;;0.40;0.25;;;9.50;86.40;;;;;;5036656;28;20401;-73
2021/12/28 10:18:12;;;;;;;1.52;0.47;;;9.70;85.50;;;;;;5036557;28;20025;-73
2021/12/28 10:20:48;;;;;;;2.13;0.38;;;9.90;84.70;;;;;;5035786;28;20053;-73
2021/12/28 10:23:17;;;;;;;0.90;0.40;;;10.00;84.60;;;;;;5069550;28;20027;-73
2021/12/28 10:25:53;;;;;;;0.40;0.30;;;10.10;84.10;;;;;;5036042;28;20025;-73
2021/12/28 10:28:25;;;;;;;0.65;0.50;;;10.10;84.80;;;;;;5069443;28;20021;-73
2021/12/28 10:30:54;;;;;;;0.80;0.43;;;10.20;83.70;;;;;;5036211;28;20484;-73
2021/12/28 10:33:26;;;;;;;0.55;0.20;;;10.30;83.00;;;;;;5036212;28;20071;-73
2021/12/28 10:35:54;;;;;;;0.40;0.20;;;10.40;82.70;;;;;;5069154;28;20124;-73
2021/12/28 10:38:26;;;;;;;0.45;0.20;;;10.40;82.70;;;;;;5035919;28;20462;-73
2021/12/28 10:40:54;;;;;;;0.40;0.20;;;10.50;82.60;;;;;;5036084;28;20029;-74
2021/12/28 10:43:23;;;;;;;0.45;0.30;;;10.50;82.80;;;;;;5035930;28;20032;-73
2021/12/28 10:46:00;;;;;;;0.73;0.43;;;10.50;82.70;;;;;;5035543;28;20024;-73
2021/12/28 10:48:28;;;;;;;0.40;0.40;;;10.60;82.60;;;;;;5035459;28;20363;-73
2021/12/28 10:51:01;;;;;;;1.65;0.30;;;10.60;82.30;;;;;;5035346;28;20029;-73
2021/12/28 10:53:36;;;;;;;0.68;0.45;;;10.60;82.40;;;;;;5038222;28;20021;-73
2021/12/28 10:56:07;;;;;;;0.80;0.50;;;10.70;82.20;;;;;;5036191;28;20423;-74
2021/12/28 10:58:40;;;;;;;0.20;0.20;;;11.00;80.70;;;;;;5035400;28;20028;-73
2021/12/28 11:01:21;;;;;;;0.32;0.30;;;10.90;80.90;;;;;;5035571;28;20033;-73
2021/12/28 11:03:50;;;;;;;0.60;0.30;;;10.80;81.10;;;;;;5035430;28;20029;-73
2021/12/28 11:06:19;;;;;;;0.35;0.15;;;10.70;81.30;;;;;;5034299;28;20033;-73
2021/12/28 11:08:50;;;;;;;0.68;0.32;;;10.70;81.80;;;;;;5068494;28;20025;-73
2021/12/28 11:11:20;;;;;;;0.73;0.20;;;10.70;81.60;;;;;;5035428;28;20041;-74
2021/12/28 11:13:47;;;;;;;1.23;0.30;;;10.80;81.40;;;;;;5035297;28;20035;-74
2021/12/28 11:16:14;;;;;;;0.80;0.40;;;11.00;80.50;;;;;;5035117;28;20025;-74
2021/12/28 11:18:42;;;;;;;0.30;0.20;;;11.00;80.60;;;;;;5035128;28;20115;-74
2021/12/28 11:21:27;;;;;;;0.80;0.50;;;11.00;80.00;;;;;;5035057;28;20485;-73
2021/12/28 11:23:55;;;;;;;0.68;0.30;;;11.00;80.10;;;;;;5035392;28;20079;-75
2021/12/28 11:26:22;;;;;;;0.43;0.20;;;11.10;80.10;;;;;;5035205;28;20063;-75
2021/12/28 11:29:07;;;;;;;0.20;0.20;;;11.20;79.30;;;;;;5035006;28;20021;-74
2021/12/28 11:31:37;;;;;;;0.22;0.10;;;11.40;78.90;;;;;;5035026;28;20033;-73
2021/12/28 11:34:06;;;;;;;0.68;0.40;;;11.70;77.40;;;;;;5034821;28;20072;-74
2021/12/28 11:36:45;;;;;;;1.48;0.32;;;12.50;74.90;;;;;;5034912;28;20029;-74
2021/12/28 11:39:17;;;;;;;0.20;0.20;;;13.00;72.80;;;;;;5035188;28;20036;-74
2021/12/28 11:41:44;;;;;;;0.50;0.20;;;13.30;70.30;;;;;;5035004;28;20029;-75
2021/12/28 11:44:10;;;;;;;0.10;0.10;;;13.30;70.00;;;;;;5034865;28;20057;-74
2021/12/28 11:46:36;;;;;;;0.98;0.20;;;13.50;69.10;;;;;;5035130;28;20032;-74
2021/12/28 11:49:05;;;;;;;0.50;0.17;;;13.20;69.20;;;;;;5034568;28;20075;-74
2021/12/28 11:51:31;;;;;;;0.28;0.20;;;12.60;71.50;;;;;;5052671;28;20068;-73
2021/12/28 11:53:58;;;;;;;0.55;0.30;;;12.30;72.50;;;;;;5052760;28;20468;-74
2021/12/28 11:56:30;;;;;;;0.85;0.20;;;12.10;73.20;;;;;;5052571;28;20101;-73
2021/12/28 11:59:18;;;;;;;0.30;0.13;;;11.90;74.20;;;;;;5052748;28;20029;-74
2021/12/28 12:01:53;;;;;;;0.65;0.10;;;11.60;75.10;;;;;;5052710;28;20672;-74
2021/12/28 12:04:31;;;;;;;0.65;0.30;;;11.50;75.60;;;;;;5053197;28;20025;-74
2021/12/28 12:07:20;;;;;;;1.20;0.47;;;11.50;75.70;;;;;;5056595;28;20100;-76
2021/12/28 12:09:49;;;;;;;1.88;0.20;;;11.60;75.50;;;;;;5055953;28;20040;-75
2021/12/28 12:12:18;;;;;;;1.35;0.40;;;11.50;74.70;;;;;;5059418;28;20026;-75
2021/12/28 12:15:00;;;;;;;0.98;0.30;;;11.50;75.00;;;;;;5057451;28;20052;-77
2021/12/28 12:17:29;;;;;;;0.77;0.50;;;11.50;75.10;;;;;;5059701;28;20025;-74
2021/12/28 12:19:56;;;;;;;0.77;0.30;;;11.40;75.40;;;;;;5078463;28;20088;-75
2021/12/28 12:22:38;;;;;;;0.40;0.35;;;11.50;74.60;;;;;;5080890;28;20005;-75
2021/12/28 12:25:14;;;;;;;1.70;0.40;;;11.50;74.00;;;;;;5078952;28;20048;-76
2021/12/28 12:27:49;;;;;;;1.52;0.40;;;11.50;73.70;;;;;;5078388;28;20013;-76
2021/12/28 12:30:18;;;;;;;0.85;0.50;;;11.50;73.40;;;;;;5080157;28;20040;-75
2021/12/28 12:32:58;;;;;;;2.38;0.65;;;11.50;73.30;;;;;;5079659;28;20025;-76
2021/12/28 12:35:42;;;;;;;1.95;0.40;;;11.50;72.90;;;;;;5062651;28;20053;-75
2021/12/28 12:38:14;;;;;;;1.70;0.55;;;11.50;73.30;;;;;;5057200;28;20101;-75
2021/12/28 12:41:08;;;;;;;1.05;0.30;;;11.50;73.80;;;;;;5057310;28;20041;-75
2021/12/28 12:43:39;;;;;;;1.67;0.60;;;11.40;73.60;;;;;;5057112;28;20025;-74
2021/12/28 12:46:12;;;;;;;1.33;0.50;;;11.50;73.50;;;;;;5056554;28;20034;-75
2021/12/28 12:48:38;;;;;;;1.55;0.40;;;11.40;73.70;;;;;;5056850;28;20056;-75
2021/12/28 12:51:19;;;;;;;0.63;0.30;;;11.40;73.40;;;;;;5056329;28;20056;-75
2021/12/28 12:53:50;;;;;;;2.17;0.40;;;11.40;74.00;;;;;;5056107;28;20056;-77
2021/12/28 12:56:19;;;;;;;1.15;0.45;;;11.40;73.80;;;;;;5055835;28;20021;-76
2021/12/28 12:58:46;;;;;;;4.20;0.55;;;11.40;74.00;;;;;;5055702;28;20105;-76